Time,TemperatureF,DewpointF,PressureIn,WindDirection,WindDirectionDegrees,WindSpeedMPH,WindSpeedGustMPH,Humidity,HourlyPrecipIn,Conditions,Clouds,dailyrainin,SolarRadiationWatts/m^2,SoftwareType,DateUTC
2013-01-20 00:00:00,38.9,29.9,30.22,SSW,198,0.0,0.0,70,0.00,,,0.00,0,Wunderground v.1.15,2013-01-20 05:00:00,
2013-01-20 00:10:00,38.8,30.2,30.22,SSW,198,0.0,0.0,71,0.00,,,0.00,0,Wunderground v.1.15,2013-01-20 05:10:00,
2013-01-20 00:20:00,38.6,30.4,30.22,SSW,198,0.0,0.0,72,0.00,,,0.00,0,Wunderground v.1.15,2013-01-20 05:20:00,
2013-01-20 00:30:00,38.5,29.9,30.22,SSW,200,1.0,3.0,71,0.00,,,0.00,0,Wunderground v.1.15,2013-01-20 05:30:00,
2013-01-20 00:40:00,38.9,29.9,30.22,SW,221,3.0,4.0,70,0.00,,,0.00,0,Wunderground v.1.15,2013-01-20 05:40:00,
2013-01-20 00:50:00,39.3,30.0,30.22,SSW,213,2.0,2.0,69,0.00,,,0.00,0,Wunderground v.1.15,2013-01-20 05:50:00,
2013-01-20 01:00:00,38.9,30.3,30.21,SSW,213,2.0,2.0,71,0.00,,,0.00,0,Wunderground v.1.15,2013-01-20 06:00:00,
2013-01-20 01:10:00,38.3,30.1,30.21,SSW,213,0.0,0.0,72,0.00,,,0.00,0,Wunderground v.1.15,2013-01-20 06:10:00,
2013-01-20 01:21:00,37.6,30.1,30.21,SSW,213,0.0,0.0,74,0.00,,,0.00,0,Wunderground v.1.15,2013-01-20 06:21:00,
2013-01-20 01:30:00,37.5,30.0,30.21,SSW,213,0.0,0.0,74,0.00,,,0.00,0,Wunderground v.1.15,2013-01-20 06:30:00,
2013-01-20 01:40:00,37.3,30.1,30.21,SSW,213,0.0,3.0,75,0.00,,,0.00,0,Wunderground v.1.15,2013-01-20 06:40:00,
2013-01-20 01:50:00,38.2,30.3,30.21,SSW,213,1.0,2.0,73,0.00,,,0.00,0,Wunderground v.1.15,2013-01-20 06:50:00,
2013-01-20 02:00:00,38.0,30.1,30.21,SSW,213,0.0,0.0,73,0.00,,,0.00,0,Wunderground v.1.15,2013-01-20 07:00:00,
2013-01-20 02:10:00,38.2,30.0,30.21,SSW,213,0.0,0.0,72,0.00,,,0.00,0,Wunderground v.1.15,2013-01-20 07:10:00,
2013-01-20 02:20:00,37.5,29.6,30.21,SSW,213,0.0,1.0,73,0.00,,,0.00,0,Wunderground v.1.15,2013-01-20 07:20:00,
2013-01-20 02:30:00,37.2,29.7,30.22,SSW,212,0.0,1.0,74,0.00,,,0.00,0,Wunderground v.1.15,2013-01-20 07:30:00,
2013-01-20 02:40:00,37.5,29.6,30.22,SSW,212,0.0,0.0,73,0.00,,,0.00,0,Wunderground v.1.15,2013-01-20 07:40:00,
2013-01-20 02:51:00,37.6,29.4,30.22,South,184,1.0,1.0,72,0.00,,,0.00,0,Wunderground v.1.15,2013-01-20 07:51:00,
2013-01-20 03:00:00,37.5,29.6,30.22,South,184,0.0,3.0,73,0.00,,,0.00,0,Wunderground v.1.15,2013-01-20 08:00:00,
2013-01-20 03:10:00,37.5,29.3,30.22,South,184,1.0,1.0,72,0.00,,,0.00,0,Wunderground v.1.15,2013-01-20 08:10:00,
2013-01-20 03:20:00,36.8,29.3,30.22,South,184,0.0,0.0,74,0.00,,,0.00,0,Wunderground v.1.15,2013-01-20 08:20:00,
2013-01-20 03:30:00,36.2,29.0,30.22,South,184,0.0,0.0,75,0.00,,,0.00,0,Wunderground v.1.15,2013-01-20 08:30:00,
2013-01-20 03:40:00,35.9,29.4,30.22,South,184,0.0,0.0,77,0.00,,,0.00,0,Wunderground v.1.15,2013-01-20 08:40:00,
2013-01-20 03:50:00,35.3,28.8,30.22,South,184,0.0,0.0,77,0.00,,,0.00,0,Wunderground v.1.15,2013-01-20 08:50:00,
2013-01-20 04:00:00,34.9,28.7,30.21,South,184,0.0,0.0,78,0.00,,,0.00,0,Wunderground v.1.15,2013-01-20 09:00:00,
2013-01-20 04:10:00,34.4,28.9,30.21,South,184,0.0,0.0,80,0.00,,,0.00,0,Wunderground v.1.15,2013-01-20 09:10:00,
2013-01-20 04:21:00,34.9,29.4,30.20,South,184,0.0,0.0,80,0.00,,,0.00,0,Wunderground v.1.15,2013-01-20 09:21:00,
2013-01-20 04:30:00,35.6,29.7,30.20,SW,233,1.0,1.0,79,0.00,,,0.00,0,Wunderground v.1.15,2013-01-20 09:30:00,
2013-01-20 04:40:00,36.8,29.9,30.20,SW,225,2.0,5.0,76,0.00,,,0.00,0,Wunderground v.1.15,2013-01-20 09:40:00,
2013-01-20 04:50:00,37.0,30.1,30.20,WSW,244,1.0,1.0,76,0.00,,,0.00,0,Wunderground v.1.15,2013-01-20 09:50:00,
2013-01-20 05:00:00,36.6,29.7,30.20,SSW,213,0.0,0.0,76,0.00,,,0.00,0,Wunderground v.1.15,2013-01-20 10:00:00,
2013-01-20 05:10:00,36.3,29.8,30.20,SSW,213,0.0,0.0,77,0.00,,,0.00,0,Wunderground v.1.15,2013-01-20 10:10:00,
2013-01-20 05:20:00,37.6,30.1,30.20,SW,214,1.0,1.0,74,0.00,,,0.00,0,Wunderground v.1.15,2013-01-20 10:20:00,
2013-01-20 05:30:00,38.3,30.4,30.19,SW,228,1.0,2.0,73,0.00,,,0.00,0,Wunderground v.1.15,2013-01-20 10:30:00,
2013-01-20 05:40:00,38.0,30.1,30.19,SW,228,1.0,1.0,73,0.00,,,0.00,0,Wunderground v.1.15,2013-01-20 10:40:00,
2013-01-20 05:51:00,37.2,29.7,30.19,SW,228,0.0,0.0,74,0.00,,,0.00,0,Wunderground v.1.15,2013-01-20 10:51:00,
2013-01-20 06:00:00,36.2,29.4,30.20,SW,228,0.0,0.0,76,0.00,,,0.00,0,Wunderground v.1.15,2013-01-20 11:00:00,
2013-01-20 06:10:00,35.6,29.4,30.20,SW,228,0.0,0.0,78,0.00,,,0.00,0,Wunderground v.1.15,2013-01-20 11:10:00,
2013-01-20 06:20:00,35.5,29.6,30.20,SW,228,0.0,0.0,79,0.00,,,0.00,0,Wunderground v.1.15,2013-01-20 11:20:00,
2013-01-20 06:30:00,35.5,29.9,30.20,SW,228,0.0,0.0,80,0.00,,,0.00,0,Wunderground v.1.15,2013-01-20 11:30:00,
2013-01-20 06:40:00,36.2,30.6,30.20,SW,228,0.0,0.0,80,0.00,,,0.00,0,Wunderground v.1.15,2013-01-20 11:40:00,
2013-01-20 06:51:00,36.3,30.1,30.20,SW,228,0.0,0.0,78,0.00,,,0.00,0,Wunderground v.1.15,2013-01-20 11:51:00,
2013-01-20 07:00:00,37.0,30.8,30.20,SW,228,0.0,1.0,78,0.00,,,0.00,0,Wunderground v.1.15,2013-01-20 12:00:00,
2013-01-20 07:10:00,38.0,30.4,30.20,SW,228,0.0,0.0,74,0.00,,,0.00,0,Wunderground v.1.15,2013-01-20 12:10:00,
2013-01-20 07:20:00,38.0,31.1,30.20,SW,228,0.0,0.0,76,0.00,,,0.00,0,Wunderground v.1.15,2013-01-20 12:20:00,
2013-01-20 07:30:00,38.0,30.4,30.21,SW,228,1.0,1.0,74,0.00,,,0.00,0,Wunderground v.1.15,2013-01-20 12:30:00,
2013-01-20 07:40:00,37.9,31.0,30.21,West,271,1.0,1.0,76,0.00,,,0.00,0,Wunderground v.1.15,2013-01-20 12:40:00,
2013-01-20 07:51:00,39.9,31.3,30.21,WSW,238,1.0,1.0,71,0.00,,,0.00,0,Wunderground v.1.15,2013-01-20 12:51:00,
2013-01-20 08:00:00,39.9,31.3,30.22,West,262,1.0,1.0,71,0.00,,,0.00,9,Wunderground v.1.15,2013-01-20 13:00:00,
2013-01-20 08:10:00,39.1,30.8,30.22,West,262,0.0,0.0,72,0.00,,,0.00,12,Wunderground v.1.15,2013-01-20 13:10:00,
2013-01-20 08:20:00,38.9,31.0,30.21,SSW,210,0.0,0.0,73,0.00,,,0.00,18,Wunderground v.1.15,2013-01-20 13:20:00,
2013-01-20 08:30:00,38.8,31.2,30.21,WNW,288,0.0,0.0,74,0.00,,,0.00,19,Wunderground v.1.15,2013-01-20 13:30:00,
2013-01-20 08:40:00,38.5,31.3,30.21,WNW,288,0.0,0.0,75,0.00,,,0.00,23,Wunderground v.1.15,2013-01-20 13:40:00,
2013-01-20 08:50:00,38.9,31.3,30.22,West,262,0.0,1.0,74,0.00,,,0.00,26,Wunderground v.1.15,2013-01-20 13:50:00,
2013-01-20 09:00:00,40.5,31.8,30.22,West,279,0.0,1.0,71,0.00,,,0.00,28,Wunderground v.1.15,2013-01-20 14:00:00,
2013-01-20 09:10:00,42.3,32.5,30.22,West,280,0.0,0.0,68,0.00,,,0.00,32,Wunderground v.1.15,2013-01-20 14:10:00,
2013-01-20 09:20:00,44.2,32.4,30.22,WNW,284,1.0,1.0,63,0.00,,,0.00,33,Wunderground v.1.15,2013-01-20 14:20:00,
2013-01-20 09:30:00,45.4,33.1,30.22,West,260,1.0,1.0,62,0.00,,,0.00,35,Wunderground v.1.15,2013-01-20 14:30:00,
2013-01-20 09:40:00,46.1,32.6,30.22,West,281,1.0,1.0,59,0.00,,,0.00,39,Wunderground v.1.15,2013-01-20 14:40:00,
2013-01-20 09:50:00,47.0,33.0,30.22,WNW,289,2.0,2.0,58,0.00,,,0.00,40,Wunderground v.1.15,2013-01-20 14:50:00,
2013-01-20 10:00:00,47.6,33.1,30.22,West,268,1.0,3.0,57,0.00,,,0.00,199,Wunderground v.1.15,2013-01-20 15:00:00,
2013-01-20 10:10:00,47.9,33.4,30.22,WSW,255,1.0,1.0,57,0.00,,,0.00,376,Wunderground v.1.15,2013-01-20 15:10:00,
2013-01-20 10:21:00,48.3,33.3,30.22,WSW,249,1.0,2.0,56,0.00,,,0.00,399,Wunderground v.1.15,2013-01-20 15:21:00,
2013-01-20 10:30:00,48.6,33.6,30.23,WNW,285,1.0,2.0,56,0.00,,,0.00,424,Wunderground v.1.15,2013-01-20 15:30:00,
2013-01-20 10:40:00,48.9,33.9,30.23,SW,221,1.0,1.0,56,0.00,,,0.00,448,Wunderground v.1.15,2013-01-20 15:40:00,
2013-01-20 10:50:00,49.6,33.6,30.23,WSW,239,1.0,1.0,54,0.00,,,0.00,469,Wunderground v.1.15,2013-01-20 15:50:00,
2013-01-20 11:00:00,50.1,33.6,30.23,NNW,333,1.0,1.0,53,0.00,,,0.00,489,Wunderground v.1.15,2013-01-20 16:00:00,
2013-01-20 11:10:00,50.7,33.7,30.23,NNW,332,1.0,1.0,52,0.00,,,0.00,506,Wunderground v.1.15,2013-01-20 16:10:00,
2013-01-20 11:21:00,51.9,33.8,30.23,NE,46,1.0,4.0,50,0.00,,,0.00,524,Wunderground v.1.15,2013-01-20 16:21:00,
2013-01-20 11:30:00,52.2,34.1,30.23,NNW,336,2.0,4.0,50,0.00,,,0.00,538,Wunderground v.1.15,2013-01-20 16:30:00,
2013-01-20 11:40:00,52.5,34.4,30.23,NNE,30,1.0,3.0,50,0.00,,,0.00,552,Wunderground v.1.15,2013-01-20 16:40:00,
2013-01-20 11:51:00,52.5,33.9,30.22,North,5,1.0,1.0,49,0.00,,,0.00,563,Wunderground v.1.15,2013-01-20 16:51:00,
2013-01-20 12:00:00,53.3,35.6,30.22,NE,42,1.0,1.0,51,0.00,,,0.00,578,Wunderground v.1.15,2013-01-20 17:00:00,
2013-01-20 12:10:00,53.5,34.3,30.22,SE,141,1.0,3.0,48,0.00,,,0.00,589,Wunderground v.1.15,2013-01-20 17:10:00,
2013-01-20 12:30:00,54.1,34.8,30.19,NE,35,1.0,2.0,48,0.00,,,0.00,598,Wunderground v.1.15,2013-01-20 17:30:00,
2013-01-20 12:40:00,54.2,34.4,30.19,NE,35,1.0,1.0,47,0.00,,,0.00,598,Wunderground v.1.15,2013-01-20 17:40:00,
2013-01-20 12:50:00,54.5,35.2,30.19,NE,36,1.0,1.0,48,0.00,,,0.00,599,Wunderground v.1.15,2013-01-20 17:50:00,
2013-01-20 13:00:00,54.5,34.7,30.18,NNW,330,2.0,2.0,47,0.00,,,0.00,471,Wunderground v.1.15,2013-01-20 18:00:00,
2013-01-20 13:10:00,54.4,35.1,30.18,NNW,342,0.0,2.0,48,0.00,,,0.00,545,Wunderground v.1.15,2013-01-20 18:10:00,
2013-01-20 13:21:00,54.8,34.9,30.17,North,360,1.0,1.0,47,0.00,,,0.00,594,Wunderground v.1.15,2013-01-20 18:21:00,
2013-01-20 13:30:00,55.6,36.2,30.16,NNW,339,1.0,1.0,48,0.00,,,0.00,591,Wunderground v.1.15,2013-01-20 18:30:00,
2013-01-20 13:40:00,55.9,35.9,30.16,WNW,300,0.0,2.0,47,0.00,,,0.00,220,Wunderground v.1.15,2013-01-20 18:40:00,
2013-01-20 14:00:00,56.0,34.9,30.15,WSW,254,1.0,1.0,45,0.00,,,0.00,564,Wunderground v.1.15,2013-01-20 19:00:00,
2013-01-20 14:10:00,56.6,36.6,30.15,South,182,2.0,2.0,47,0.00,,,0.00,554,Wunderground v.1.15,2013-01-20 19:10:00,
2013-01-20 14:21:00,56.5,34.8,30.14,SE,141,2.0,2.0,44,0.00,,,0.00,53,Wunderground v.1.15,2013-01-20 19:21:00,
2013-01-20 14:30:00,56.5,34.8,30.14,SE,140,1.0,2.0,44,0.00,,,0.00,169,Wunderground v.1.15,2013-01-20 19:30:00,
2013-01-20 14:40:00,56.7,35.0,30.14,South,170,1.0,7.0,44,0.00,,,0.00,380,Wunderground v.1.15,2013-01-20 19:40:00,
2013-01-20 14:50:00,56.9,35.8,30.13,SE,141,3.0,3.0,45,0.00,,,0.00,51,Wunderground v.1.15,2013-01-20 19:50:00,
2013-01-20 15:00:00,57.2,35.5,30.13,South,173,2.0,5.0,44,0.00,,,0.00,49,Wunderground v.1.15,2013-01-20 20:00:00,
2013-01-20 15:10:00,57.5,35.7,30.13,South,173,1.0,1.0,44,0.00,,,0.00,49,Wunderground v.1.15,2013-01-20 20:10:00,
2013-01-20 15:21:00,58.3,35.9,30.13,South,173,1.0,1.0,43,0.00,,,0.00,49,Wunderground v.1.15,2013-01-20 20:21:00,
2013-01-20 15:30:00,58.4,34.2,30.13,South,173,0.0,0.0,40,0.00,,,0.00,49,Wunderground v.1.15,2013-01-20 20:30:00,
2013-01-20 15:40:00,58.7,34.4,30.13,SSE,162,1.0,1.0,40,0.00,,,0.00,197,Wunderground v.1.15,2013-01-20 20:40:00,
2013-01-20 15:51:00,59.0,34.7,30.13,SSE,149,2.0,2.0,40,0.00,,,0.00,158,Wunderground v.1.15,2013-01-20 20:51:00,
2013-01-20 16:00:00,59.5,34.5,30.13,South,171,2.0,5.0,39,0.00,,,0.00,158,Wunderground v.1.15,2013-01-20 21:00:00,
2013-01-20 16:10:00,59.2,34.2,30.13,South,172,2.0,2.0,39,0.00,,,0.00,221,Wunderground v.1.15,2013-01-20 21:10:00,
2013-01-20 16:20:00,58.6,34.3,30.13,South,172,0.0,2.0,40,0.00,,,0.00,127,Wunderground v.1.15,2013-01-20 21:20:00,
2013-01-20 16:30:00,58.7,35.0,30.13,South,172,1.0,1.0,41,0.00,,,0.00,123,Wunderground v.1.15,2013-01-20 21:30:00,
2013-01-20 16:51:00,58.4,33.5,30.13,South,172,0.0,0.0,39,0.00,,,0.00,44,Wunderground v.1.15,2013-01-20 21:51:00,
2013-01-20 17:00:00,58.4,33.5,30.13,South,172,0.0,0.0,39,0.00,,,0.00,83,Wunderground v.1.15,2013-01-20 22:00:00,
2013-01-20 17:10:00,58.3,34.1,30.13,South,172,0.0,0.0,40,0.00,,,0.00,32,Wunderground v.1.15,2013-01-20 22:10:00,
2013-01-20 17:20:00,58.0,33.8,30.13,South,172,1.0,1.0,40,0.00,,,0.00,19,Wunderground v.1.15,2013-01-20 22:20:00,
2013-01-20 17:30:00,57.5,34.0,30.13,South,172,1.0,3.0,41,0.00,,,0.00,14,Wunderground v.1.15,2013-01-20 22:30:00,
2013-01-20 17:40:00,57.0,34.1,30.13,South,172,1.0,1.0,42,0.00,,,0.00,11,Wunderground v.1.15,2013-01-20 22:40:00,
2013-01-20 17:51:00,56.5,33.7,30.13,WSW,242,1.0,1.0,42,0.00,,,0.00,7,Wunderground v.1.15,2013-01-20 22:51:00,
2013-01-20 18:00:00,55.9,34.8,30.13,WSW,242,0.0,0.0,45,0.00,,,0.00,0,Wunderground v.1.15,2013-01-20 23:00:00,
2013-01-20 18:10:00,54.8,34.4,30.13,WSW,242,0.0,0.0,46,0.00,,,0.00,0,Wunderground v.1.15,2013-01-20 23:10:00,
2013-01-20 18:21:00,53.3,35.6,30.13,NNE,22,1.0,1.0,51,0.00,,,0.00,0,Wunderground v.1.15,2013-01-20 23:21:00,
2013-01-20 18:30:00,52.5,35.4,30.14,NNE,22,0.0,1.0,52,0.00,,,0.00,0,Wunderground v.1.15,2013-01-20 23:30:00,
2013-01-20 18:40:00,52.6,34.0,30.14,NNE,12,1.0,1.0,49,0.00,,,0.00,0,Wunderground v.1.15,2013-01-20 23:40:00,
2013-01-20 18:50:00,52.3,32.6,30.14,NNE,16,1.0,1.0,47,0.00,,,0.00,0,Wunderground v.1.15,2013-01-20 23:50:00,
2013-01-20 19:00:00,52.3,33.2,30.14,NNW,347,0.0,1.0,48,0.00,,,0.00,0,Wunderground v.1.15,2013-01-21 00:00:00,
2013-01-20 19:10:00,51.9,32.8,30.14,NNW,348,2.0,2.0,48,0.00,,,0.00,0,Wunderground v.1.15,2013-01-21 00:10:00,
2013-01-20 19:20:00,50.8,33.3,30.15,North,5,1.0,2.0,51,0.00,,,0.00,0,Wunderground v.1.15,2013-01-21 00:20:00,
2013-01-20 19:30:00,50.4,32.4,30.14,North,11,1.0,2.0,50,0.00,,,0.00,0,Wunderground v.1.15,2013-01-21 00:30:00,
2013-01-20 19:40:00,49.8,32.4,30.14,North,11,0.0,1.0,51,0.00,,,0.00,0,Wunderground v.1.15,2013-01-21 00:40:00,
2013-01-20 19:51:00,49.1,31.7,30.15,NNE,12,1.0,1.0,51,0.00,,,0.00,0,Wunderground v.1.15,2013-01-21 00:51:00,
2013-01-20 20:00:00,48.6,31.8,30.15,NNE,12,1.0,1.0,52,0.00,,,0.00,0,Wunderground v.1.15,2013-01-21 01:00:00,
2013-01-20 20:10:00,48.3,30.5,30.15,NNE,14,1.0,1.0,50,0.00,,,0.00,0,Wunderground v.1.15,2013-01-21 01:10:00,
2013-01-20 20:20:00,48.2,30.4,30.15,NNE,14,0.0,0.0,50,0.00,,,0.00,0,Wunderground v.1.15,2013-01-21 01:20:00,
2013-01-20 20:30:00,48.0,30.2,30.15,NNE,14,0.0,0.0,50,0.00,,,0.00,0,Wunderground v.1.15,2013-01-21 01:30:00,
2013-01-20 20:40:00,47.6,29.9,30.15,NNE,14,0.0,0.0,50,0.00,,,0.00,0,Wunderground v.1.15,2013-01-21 01:40:00,
2013-01-20 20:51:00,47.0,29.8,30.15,NNE,14,0.0,0.0,51,0.00,,,0.00,0,Wunderground v.1.15,2013-01-21 01:51:00,
2013-01-20 21:00:00,46.2,30.0,30.15,NNE,14,0.0,0.0,53,0.00,,,0.00,0,Wunderground v.1.15,2013-01-21 02:00:00,
2013-01-20 21:10:00,45.8,29.6,30.15,NNE,14,1.0,1.0,53,0.00,,,0.00,0,Wunderground v.1.15,2013-01-21 02:10:00,
2013-01-20 21:20:00,45.8,29.6,30.14,NNE,14,0.0,0.0,53,0.00,,,0.00,0,Wunderground v.1.15,2013-01-21 02:20:00,
2013-01-20 21:30:00,46.0,29.3,30.14,NNE,14,0.0,0.0,52,0.00,,,0.00,0,Wunderground v.1.15,2013-01-21 02:30:00,
2013-01-20 21:40:00,45.7,29.1,30.14,NNE,14,0.0,0.0,52,0.00,,,0.00,0,Wunderground v.1.15,2013-01-21 02:40:00,
2013-01-20 21:51:00,45.5,29.3,30.14,NNE,14,0.0,0.0,53,0.00,,,0.00,0,Wunderground v.1.15,2013-01-21 02:51:00,
2013-01-20 22:00:00,44.2,30.3,30.15,NNE,15,0.0,0.0,58,0.00,,,0.00,0,Wunderground v.1.15,2013-01-21 03:00:00,
2013-01-20 22:10:00,42.9,30.4,30.15,NNE,15,0.0,0.0,61,0.00,,,0.00,0,Wunderground v.1.15,2013-01-21 03:10:00,
2013-01-20 22:20:00,42.3,30.2,30.14,NNE,16,1.0,1.0,62,0.00,,,0.00,0,Wunderground v.1.15,2013-01-21 03:20:00,
2013-01-20 22:30:00,41.9,29.8,30.15,NNE,16,0.0,0.0,62,0.00,,,0.00,0,Wunderground v.1.15,2013-01-21 03:30:00,
2013-01-20 22:40:00,42.3,29.0,30.15,NNE,16,0.0,0.0,59,0.00,,,0.00,0,Wunderground v.1.15,2013-01-21 03:40:00,
2013-01-20 22:51:00,42.2,29.3,30.15,NNE,16,0.0,0.0,60,0.00,,,0.00,0,Wunderground v.1.15,2013-01-21 03:51:00,
2013-01-20 23:00:00,41.5,29.4,30.15,NNE,16,0.0,0.0,62,0.00,,,0.00,0,Wunderground v.1.15,2013-01-21 04:00:00,
2013-01-20 23:10:00,40.6,29.4,30.15,NNE,16,0.0,0.0,64,0.00,,,0.00,0,Wunderground v.1.15,2013-01-21 04:10:00,
2013-01-20 23:20:00,40.3,29.1,30.15,NNE,16,0.0,0.0,64,0.00,,,0.00,0,Wunderground v.1.15,2013-01-21 04:20:00,
2013-01-20 23:30:00,40.3,28.3,30.15,NNE,16,0.0,0.0,62,0.00,,,0.00,0,Wunderground v.1.15,2013-01-21 04:30:00,
2013-01-20 23:40:00,40.3,29.1,30.15,NNE,16,0.0,0.0,64,0.00,,,0.00,0,Wunderground v.1.15,2013-01-21 04:40:00,